createdAt,value
2022-11-22T00:01:21.250Z,7.23
2022-11-22T00:03:49.525Z,7.31
2022-11-22T00:06:17.714Z,7.24
2022-11-22T00:08:46.400Z,7.32
2022-11-22T00:11:14.732Z,7.34
2022-11-22T00:13:43.121Z,7.46
2022-11-22T00:16:11.566Z,7.41
2022-11-22T00:18:39.677Z,7.46
2022-11-22T00:21:09.247Z,7.42
2022-11-22T00:23:37.783Z,7.51
2022-11-22T00:26:07.807Z,7.43
2022-11-22T00:28:36.005Z,7.46
2022-11-22T00:31:04.594Z,7.49
2022-11-22T00:33:33.185Z,7.54
2022-11-22T00:36:01.700Z,7.58
2022-11-22T00:38:30.430Z,7.59
2022-11-22T00:40:59.076Z,7.69
2022-11-22T00:43:27.675Z,7.71
2022-11-22T00:45:56.000Z,7.78
2022-11-22T00:48:24.350Z,7.86
2022-11-22T00:50:52.559Z,7.80
2022-11-22T00:53:20.994Z,7.90
2022-11-22T00:55:49.992Z,7.94
2022-11-22T00:58:18.001Z,7.96
2022-11-22T01:00:46.767Z,7.92
2022-11-22T01:03:15.114Z,7.95
2022-11-22T01:05:43.559Z,7.98
2022-11-22T01:08:11.759Z,8.00
2022-11-22T01:10:40.466Z,7.97
2022-11-22T01:13:13.681Z,7.96
2022-11-22T01:15:42.181Z,8.00
2022-11-22T01:18:10.740Z,8.03
2022-11-22T01:20:41.220Z,8.04
2022-11-22T01:23:09.396Z,8.05
2022-11-22T01:25:38.100Z,8.09
2022-11-22T01:28:06.256Z,8.09
2022-11-22T01:30:34.571Z,8.09
2022-11-22T01:33:03.024Z,8.11
2022-11-22T01:35:31.535Z,8.08
2022-11-22T01:38:00.202Z,8.07
2022-11-22T01:40:28.850Z,8.09
2022-11-22T01:43:00.030Z,8.11
2022-11-22T01:45:31.436Z,8.09
2022-11-22T01:48:46.743Z,8.10
2022-11-22T01:51:21.747Z,8.14
2022-11-22T01:53:50.473Z,8.12
2022-11-22T01:56:21.830Z,8.13
2022-11-22T01:58:58.111Z,8.15
2022-11-22T02:01:28.455Z,8.15
2022-11-22T02:04:01.512Z,8.14
2022-11-22T02:06:59.182Z,8.10
2022-11-22T02:09:29.889Z,8.09
2022-11-22T02:12:02.459Z,8.09
2022-11-22T02:14:32.374Z,8.15
2022-11-22T02:17:00.855Z,8.14
2022-11-22T02:19:46.501Z,8.15
2022-11-22T02:22:34.482Z,8.20
2022-11-22T02:25:37.185Z,8.18
2022-11-22T02:28:06.020Z,8.15
2022-11-22T02:30:34.534Z,8.16
2022-11-22T02:33:03.250Z,8.20
2022-11-22T02:35:32.031Z,8.19
2022-11-22T02:38:30.867Z,8.21
2022-11-22T02:41:11.860Z,8.25
2022-11-22T02:43:43.856Z,8.28
2022-11-22T02:46:20.773Z,8.27
2022-11-22T02:48:49.386Z,8.29
2022-11-22T02:51:20.636Z,8.32
2022-11-22T02:53:50.933Z,8.32
2022-11-22T02:56:19.250Z,8.32
2022-11-22T02:58:47.475Z,8.35
2022-11-22T03:01:15.557Z,8.26
2022-11-22T03:03:43.610Z,8.30
2022-11-22T03:06:11.604Z,8.28
2022-11-22T03:08:39.742Z,8.26
2022-11-22T03:11:08.028Z,8.22
2022-11-22T03:13:36.619Z,8.22
2022-11-22T03:16:05.465Z,8.21
2022-11-22T03:18:37.659Z,8.15
2022-11-22T03:21:08.339Z,8.12
2022-11-22T03:23:37.181Z,8.06
2022-11-22T03:26:10.341Z,8.02
2022-11-22T03:28:38.868Z,7.96
2022-11-22T03:31:08.368Z,8.02
2022-11-22T03:33:37.015Z,7.96
2022-11-22T03:36:05.935Z,7.98
2022-11-22T03:38:35.590Z,7.97
2022-11-22T03:41:04.203Z,7.98
2022-11-22T03:43:32.811Z,7.94
2022-11-22T03:46:01.481Z,7.91
2022-11-22T03:48:30.213Z,7.77
2022-11-22T03:51:07.899Z,7.51
2022-11-22T03:53:36.375Z,7.30
2022-11-22T03:56:05.472Z,7.39
2022-11-22T03:58:33.880Z,7.35
2022-11-22T04:01:03.137Z,7.38
2022-11-22T04:03:31.676Z,7.37
2022-11-22T04:05:59.977Z,7.40
2022-11-22T04:08:28.315Z,7.42
2022-11-22T04:10:56.742Z,7.33
2022-11-22T04:13:45.242Z,7.46
2022-11-22T04:16:13.577Z,7.34
2022-11-22T04:18:42.023Z,7.21
2022-11-22T04:21:29.046Z,7.18
2022-11-22T04:24:16.165Z,7.14
2022-11-22T04:26:44.706Z,7.08
2022-11-22T04:29:13.380Z,7.15
2022-11-22T04:32:00.290Z,7.20
2022-11-22T04:34:28.767Z,7.06
2022-11-22T04:36:57.040Z,7.13
2022-11-22T04:39:25.696Z,7.02
2022-11-22T22:00:36.959Z,5.58
2022-11-22T22:03:07.332Z,5.69
2022-11-22T22:05:35.737Z,5.85
2022-11-22T22:08:04.206Z,6.01
2022-11-22T22:10:32.767Z,6.12
2022-11-22T22:13:01.438Z,6.17
2022-11-22T22:15:29.999Z,6.21
2022-11-22T22:18:01.964Z,6.28
2022-11-22T22:20:30.683Z,6.36
2022-11-22T22:22:59.081Z,6.39
2022-11-22T22:25:27.627Z,6.44
2022-11-22T22:27:59.042Z,6.45
2022-11-22T22:30:31.009Z,6.53
2022-11-22T22:32:59.603Z,6.59
2022-11-22T22:35:28.500Z,6.59
2022-11-22T22:37:57.123Z,6.54
2022-11-22T22:40:26.039Z,6.57
2022-11-22T22:42:54.481Z,6.59
2022-11-22T22:45:23.437Z,6.58
2022-11-22T22:47:52.396Z,6.54
2022-11-22T22:50:21.876Z,6.53
2022-11-22T22:52:50.059Z,6.49
2022-11-22T22:55:18.376Z,6.45
2022-11-22T22:57:47.522Z,6.42
2022-11-22T23:00:16.151Z,6.39
2022-11-22T23:02:44.959Z,6.32
2022-11-22T23:05:14.109Z,6.30
2022-11-22T23:07:44.029Z,6.30
2022-11-22T23:10:12.803Z,6.30
2022-11-22T23:12:41.151Z,6.28
2022-11-22T23:15:10.080Z,6.26
2022-11-22T23:17:38.780Z,6.24
2022-11-22T23:20:07.257Z,6.21
2022-11-22T23:22:35.735Z,6.18
2022-11-22T23:25:04.165Z,6.15
2022-11-22T23:27:32.720Z,6.14
2022-11-22T23:30:01.251Z,6.12
2022-11-22T23:32:32.285Z,6.07
2022-11-22T23:35:00.619Z,6.04
2022-11-22T23:37:28.642Z,6.04
2022-11-22T23:39:56.700Z,6.03
2022-11-22T23:42:25.220Z,6.02
2022-11-22T23:44:53.501Z,5.97
2022-11-22T23:47:21.575Z,5.96
2022-11-22T23:49:50.017Z,5.95
2022-11-22T23:52:19.379Z,5.95
2022-11-22T23:54:47.705Z,5.92
2022-11-22T23:57:15.986Z,5.91
2022-11-22T23:59:44.246Z,5.88
